createdAt,value
2023-02-11T00:01:34.604Z,0.842
2023-02-11T00:03:36.229Z,0.982
2023-02-11T00:07:39.851Z,0
2023-02-11T00:09:41.172Z,0
2023-02-11T00:11:42.899Z,0
2023-02-11T00:13:44.428Z,2.808
2023-02-11T00:15:45.530Z,0
2023-02-11T00:17:47.376Z,0
2023-02-11T00:19:48.510Z,0
2023-02-11T00:21:49.729Z,0
2023-02-11T00:23:51.711Z,0
2023-02-11T00:25:53.237Z,1.684
2023-02-11T00:27:54.978Z,0
2023-02-11T00:29:56.077Z,1.825
2023-02-11T00:31:57.469Z,4.352
2023-02-11T00:33:58.641Z,0.14
2023-02-11T00:36:00.637Z,1.544
2023-02-11T00:38:02.383Z,1.825
2023-02-11T00:40:06.615Z,0.702
2023-02-11T00:42:06.090Z,0.421
2023-02-11T00:44:07.560Z,0
2023-02-11T00:46:09.583Z,1.123
2023-02-11T00:48:10.820Z,0.702
2023-02-11T00:50:12.019Z,2.106
2023-02-11T00:52:13.220Z,0
2023-02-11T00:54:15.053Z,0
2023-02-11T00:56:16.117Z,0.14
2023-02-11T00:58:18.038Z,2.527
2023-02-11T01:00:19.620Z,3.088
2023-02-11T01:02:21.619Z,0.702
2023-02-11T01:04:23.549Z,4.212
2023-02-11T01:06:25.212Z,2.106
2023-02-11T01:08:26.623Z,1.684
2023-02-11T01:10:27.975Z,0.28
2023-02-11T01:12:29.768Z,3.931
2023-02-11T01:14:31.547Z,3.369
2023-02-11T01:16:32.758Z,3.229
2023-02-11T01:18:34.772Z,3.088
2023-02-11T01:20:35.989Z,1.684
2023-02-11T01:22:37.719Z,1.825
2023-02-11T01:24:39.204Z,4.212
2023-02-11T01:26:40.466Z,2.386
2023-02-11T01:28:42.451Z,2.808
2023-02-11T01:30:44.461Z,1.544
2023-02-11T01:32:45.556Z,2.667
2023-02-11T01:34:46.939Z,0.982
2023-02-11T01:36:48.717Z,0
2023-02-11T01:38:50.467Z,1.123
2023-02-11T01:40:51.931Z,0
2023-02-11T01:42:53.242Z,0.842
2023-02-11T01:44:55.196Z,0
2023-02-11T01:46:56.527Z,0
2023-02-11T01:48:57.653Z,1.684
2023-02-11T01:53:00.350Z,3.229
2023-02-11T01:55:02.418Z,0.421
2023-02-11T01:57:03.508Z,2.948
2023-02-11T01:59:05.078Z,1.825
2023-02-11T02:01:06.645Z,0.982
2023-02-11T02:03:08.278Z,4.212
2023-02-11T02:05:10.005Z,4.071
2023-02-11T02:07:11.201Z,4.914
2023-02-11T02:09:12.413Z,6.598
2023-02-11T02:11:13.750Z,2.948
2023-02-11T02:13:15.190Z,2.667
2023-02-11T02:15:16.942Z,5.756
2023-02-11T02:17:18.477Z,0.702
2023-02-11T02:21:21.947Z,2.246
2023-02-11T02:23:23.415Z,4.773
2023-02-11T02:25:25.197Z,3.088
2023-02-11T02:27:26.856Z,7.3
2023-02-11T02:29:28.063Z,6.318
2023-02-11T02:31:29.814Z,3.51
2023-02-11T02:35:32.926Z,2.246
2023-02-11T02:37:34.524Z,2.246
2023-02-11T02:39:35.629Z,2.667
2023-02-11T02:41:37.286Z,3.65
2023-02-11T02:43:39.265Z,5.194
2023-02-11T02:45:41.198Z,2.106
2023-02-11T02:47:42.415Z,3.088
2023-02-11T02:49:44.057Z,7.02
2023-02-11T02:51:45.610Z,2.527
2023-02-11T02:53:46.861Z,2.386
2023-02-11T02:55:48.942Z,3.229
2023-02-11T02:57:49.836Z,1.684
2023-02-11T02:59:51.689Z,1.263
2023-02-11T03:01:52.883Z,5.756
2023-02-11T03:03:54.393Z,2.246
2023-02-11T03:07:57.957Z,8.704
2023-02-11T03:09:59.574Z,3.369
2023-02-11T03:12:01.354Z,3.088
2023-02-11T03:14:02.757Z,1.965
2023-02-11T03:18:05.270Z,5.896
2023-02-11T03:20:07.199Z,5.475
2023-02-11T03:22:09.122Z,4.914
2023-02-11T03:24:10.614Z,4.071
2023-02-11T03:26:12.375Z,1.825
2023-02-11T03:28:14.457Z,5.335
2023-02-11T03:30:15.530Z,0.702
2023-02-11T03:32:16.919Z,1.684
2023-02-11T03:34:18.428Z,3.229
2023-02-11T03:36:20.108Z,0.561
2023-02-11T03:38:22.094Z,2.948
2023-02-11T03:40:23.212Z,3.229
2023-02-11T03:42:24.763Z,0
2023-02-11T03:44:25.973Z,0
2023-02-11T03:46:27.390Z,0.702
2023-02-11T03:48:28.573Z,2.246
2023-02-11T03:50:29.665Z,2.246
2023-02-11T03:52:31.207Z,0.14
2023-02-11T03:54:32.548Z,0
2023-02-11T03:56:34.380Z,0.28
2023-02-11T03:58:35.850Z,2.246
2023-02-11T04:00:37.628Z,1.404
2023-02-11T04:02:38.717Z,1.123
2023-02-11T04:04:39.939Z,0.14
2023-02-11T04:06:41.276Z,0.14
2023-02-11T04:08:42.350Z,2.386
2023-02-11T04:10:44.124Z,5.756
2023-02-11T04:12:45.339Z,5.756
2023-02-11T04:14:47.121Z,1.544
2023-02-11T04:16:48.757Z,1.123
2023-02-11T04:18:50.598Z,7.3
2023-02-11T04:20:51.955Z,5.475
2023-02-11T04:22:53.702Z,1.123
2023-02-11T04:24:55.491Z,2.667
2023-02-11T04:26:56.904Z,2.106
2023-02-11T04:28:58.767Z,0.982
2023-02-11T04:31:00.374Z,4.071
2023-02-11T04:33:02.197Z,1.544
2023-02-11T04:35:03.972Z,2.106
2023-02-11T04:37:05.679Z,1.684
2023-02-11T04:39:06.859Z,1.825
2023-02-11T04:41:08.666Z,0.28
2023-02-11T04:43:10.057Z,0
2023-02-11T04:45:11.776Z,0
2023-02-11T04:47:13.522Z,0.421
2023-02-11T04:49:14.891Z,0
2023-02-11T04:51:16.919Z,2.246
2023-02-11T04:53:18.702Z,0.14
2023-02-11T04:55:19.880Z,0
2023-02-11T04:57:21.532Z,0
2023-02-11T04:59:22.815Z,0
2023-02-11T05:01:24.356Z,0
2023-02-11T05:03:25.429Z,1.123
2023-02-11T05:05:27.249Z,0.702
2023-02-11T05:07:28.446Z,0
2023-02-11T05:09:29.581Z,0
2023-02-11T05:11:31.104Z,0.842
2023-02-11T05:13:32.706Z,1.123
2023-02-11T05:15:34.295Z,0.28
2023-02-11T05:17:35.644Z,5.475
2023-02-11T05:19:37.613Z,2.386
2023-02-11T05:21:38.745Z,0.561
2023-02-11T05:23:40.038Z,4.914
2023-02-11T05:25:41.826Z,0.982
2023-02-11T05:27:43.701Z,1.825
2023-02-11T05:31:47.499Z,1.965
2023-02-11T05:33:48.686Z,0.14
2023-02-11T05:35:50.250Z,0.421
2023-02-11T05:37:51.498Z,4.352
2023-02-11T05:41:54.649Z,2.948
2023-02-11T05:43:56.418Z,3.369
2023-02-11T05:45:57.687Z,2.246
2023-02-11T05:47:59.630Z,2.948
2023-02-11T05:50:01.451Z,4.352
2023-02-11T05:52:02.711Z,2.106
2023-02-11T05:54:04.019Z,2.667
2023-02-11T05:56:05.047Z,6.598
2023-02-11T05:58:06.165Z,6.598
2023-02-11T06:00:07.568Z,0.702
2023-02-11T06:02:09.275Z,3.369
2023-02-11T06:04:10.465Z,4.212
2023-02-11T06:06:12.100Z,1.825
2023-02-11T06:08:57.674Z,1.825
2023-02-11T06:10:59.449Z,0
2023-02-11T06:13:01.370Z,0.28
2023-02-11T06:15:02.556Z,0.842
2023-02-11T06:19:05.881Z,0.842
2023-02-11T06:21:07.689Z,0.28
2023-02-11T06:23:09.277Z,1.544
2023-02-11T06:25:10.755Z,1.123
2023-02-11T06:27:12.524Z,2.808
2023-02-11T06:29:14.420Z,1.544
2023-02-11T06:31:16.251Z,4.212
2023-02-11T06:33:17.729Z,5.475
2023-02-11T06:35:19.260Z,3.369
2023-02-11T06:37:20.566Z,3.79
2023-02-11T06:39:22.220Z,3.65
2023-02-11T06:41:23.534Z,1.965
2023-02-11T06:43:24.577Z,3.51
2023-02-11T06:45:26.114Z,3.088
2023-02-11T06:47:27.664Z,1.825
2023-02-11T06:51:30.358Z,1.123
2023-02-11T06:53:31.953Z,0.561
2023-02-11T06:55:33.375Z,2.386
2023-02-11T06:57:35.320Z,1.965
2023-02-11T07:01:39.009Z,4.352
2023-02-11T07:03:40.494Z,3.088
2023-02-11T07:05:42.354Z,2.386
2023-02-11T07:07:43.444Z,4.633
2023-02-11T07:09:44.769Z,3.931
2023-02-11T07:11:46.663Z,0
2023-02-11T07:13:48.218Z,0
2023-02-11T07:15:49.785Z,0
2023-02-11T07:17:51.091Z,1.544
2023-02-11T07:19:52.877Z,0
2023-02-11T07:23:55.712Z,4.212
2023-02-11T07:25:57.469Z,0.14
2023-02-11T07:27:59.049Z,0.14
2023-02-11T07:30:00.674Z,4.352
2023-02-11T07:34:03.776Z,3.65
2023-02-11T07:36:05.697Z,3.229
2023-02-11T07:40:08.013Z,1.544
2023-02-11T07:42:09.787Z,2.667
2023-02-11T07:44:11.596Z,2.667
2023-02-11T07:46:13.661Z,3.369
2023-02-11T07:48:15.272Z,1.965
2023-02-11T07:50:16.655Z,5.616
2023-02-11T07:52:18.303Z,8.002
2023-02-11T07:54:19.934Z,3.65
2023-02-11T07:56:20.995Z,5.194
2023-02-11T07:58:22.969Z,1.965
2023-02-11T08:00:24.378Z,7.16
2023-02-11T08:02:25.862Z,4.352
2023-02-11T08:04:27.019Z,2.246
2023-02-11T08:06:28.252Z,4.914
2023-02-11T08:08:29.793Z,3.65
2023-02-11T08:10:31.050Z,6.458
2023-02-11T08:12:32.221Z,5.054
2023-02-11T08:14:33.389Z,4.071
2023-02-11T08:16:35.123Z,2.808
2023-02-11T08:18:36.376Z,6.879
2023-02-11T08:20:38.114Z,8.283
2023-02-11T08:22:39.763Z,6.318
2023-02-11T08:24:41.614Z,5.054
2023-02-11T08:26:43.243Z,4.212
2023-02-11T08:28:44.656Z,4.071
2023-02-11T08:30:46.358Z,8.283
2023-02-11T08:32:47.781Z,6.879
2023-02-11T08:34:49.205Z,4.914
2023-02-11T08:36:51.179Z,5.194
2023-02-11T08:38:52.723Z,3.65
2023-02-11T08:40:54.593Z,8.143
2023-02-11T08:42:56.052Z,2.808
2023-02-11T08:44:57.921Z,3.931
2023-02-11T08:46:59.398Z,5.194
2023-02-11T08:49:00.995Z,3.931
2023-02-11T08:51:02.030Z,4.212
2023-02-11T08:53:03.845Z,3.79
2023-02-11T08:55:06.228Z,8.143
2023-02-11T08:57:07.394Z,5.756
2023-02-11T08:59:08.415Z,0.982
2023-02-11T09:01:09.738Z,6.879
2023-02-11T09:03:11.561Z,5.335
2023-02-11T09:05:12.787Z,10.53
2023-02-11T09:07:14.261Z,8.002
2023-02-11T09:09:15.482Z,5.756
2023-02-11T09:11:17.365Z,3.229
2023-02-11T09:13:18.969Z,5.054
2023-02-11T09:15:20.749Z,6.879
2023-02-11T09:17:22.458Z,5.054
2023-02-11T09:19:23.945Z,6.739
2023-02-11T09:21:25.174Z,6.739
2023-02-11T09:23:26.785Z,11.934
2023-02-11T09:25:28.853Z,8.845
2023-02-11T09:27:30.558Z,11.653
2023-02-11T09:29:31.689Z,8.424
2023-02-11T09:31:33.283Z,8.845
2023-02-11T09:33:34.534Z,9.828
2023-02-11T09:35:35.935Z,5.756
2023-02-11T09:37:37.531Z,6.177
2023-02-11T09:39:38.315Z,10.81
2023-02-11T09:41:40.185Z,5.756
2023-02-11T09:43:41.758Z,3.931
2023-02-11T09:45:43.320Z,4.914
2023-02-11T09:47:44.237Z,8.002
2023-02-11T09:49:45.929Z,10.81
2023-02-11T09:51:47.056Z,8.704
2023-02-11T09:53:48.487Z,3.088
2023-02-11T09:55:49.783Z,7.16
2023-02-11T09:57:51.669Z,7.02
2023-02-11T09:59:52.708Z,9.968
2023-02-11T10:01:53.760Z,6.318
2023-02-11T10:03:55.305Z,8.985
2023-02-11T10:07:58.169Z,8.143
2023-02-11T10:09:59.861Z,8.424
2023-02-11T10:12:01.522Z,9.547
2023-02-11T10:14:03.182Z,10.81
2023-02-11T10:16:04.368Z,7.3
2023-02-11T10:18:05.836Z,6.879
2023-02-11T10:20:07.602Z,6.879
2023-02-11T10:22:08.716Z,13.057
2023-02-11T10:24:10.529Z,10.389
2023-02-11T10:26:11.686Z,14.04
2023-02-11T10:28:13.015Z,8.002
2023-02-11T10:30:14.346Z,8.985
2023-02-11T10:32:16.418Z,8.283
2023-02-11T10:34:16.265Z,8.143
2023-02-11T10:36:18.080Z,9.968
2023-02-11T10:40:21.039Z,7.441
2023-02-11T10:42:22.749Z,10.81
2023-02-11T10:44:23.879Z,4.212
2023-02-11T10:46:25.428Z,8.283
2023-02-11T10:50:28.067Z,4.773
2023-02-11T10:52:29.298Z,6.879
2023-02-11T10:54:30.659Z,7.722
2023-02-11T10:56:40.153Z,3.65
2023-02-11T10:58:33.599Z,3.229
2023-02-11T11:00:35.228Z,5.756
2023-02-11T11:02:36.750Z,4.773
2023-02-11T11:04:37.929Z,6.458
2023-02-11T11:06:41.179Z,6.739
2023-02-11T11:08:42.352Z,4.914
2023-02-11T11:10:43.378Z,3.79
2023-02-11T11:12:44.398Z,8.845
2023-02-11T11:14:45.360Z,6.318
2023-02-11T11:16:46.831Z,3.79
2023-02-11T11:18:47.929Z,8.002
2023-02-11T11:20:49.843Z,6.458
2023-02-11T11:22:51.290Z,4.071
2023-02-11T11:24:52.198Z,4.352
2023-02-11T11:26:53.134Z,2.667
2023-02-11T11:28:54.264Z,5.896
2023-02-11T11:30:55.657Z,5.335
2023-02-11T11:32:56.871Z,2.106
2023-02-11T11:34:57.911Z,3.931
2023-02-11T11:36:59.092Z,5.194
2023-02-11T11:39:00.871Z,6.177
2023-02-11T11:41:02.120Z,1.123
2023-02-11T11:43:03.727Z,1.965
2023-02-11T11:45:04.803Z,7.581
2023-02-11T11:47:05.722Z,1.684
2023-02-11T11:49:07.259Z,1.544
2023-02-11T11:51:09.056Z,3.931
2023-02-11T11:53:10.426Z,4.212
2023-02-11T11:55:11.753Z,1.123
2023-02-11T11:57:13.377Z,1.544
2023-02-11T11:59:14.463Z,6.177
2023-02-11T12:01:15.958Z,2.667
2023-02-11T12:03:17.187Z,3.088
2023-02-11T12:05:18.228Z,4.633
2023-02-11T12:07:19.810Z,6.739
2023-02-11T12:09:21.283Z,3.088
2023-02-11T12:11:22.331Z,4.071
2023-02-11T12:13:23.341Z,5.616
2023-02-11T12:15:25.222Z,1.825
2023-02-11T12:17:26.530Z,4.212
2023-02-11T12:19:27.622Z,7.722
2023-02-11T12:21:29.155Z,3.79
2023-02-11T12:23:30.596Z,7.16
2023-02-11T12:25:32.226Z,7.441
2023-02-11T12:27:33.851Z,7.02
2023-02-11T12:31:36.711Z,4.071
2023-02-11T12:33:38.510Z,3.369
2023-02-11T12:35:39.766Z,3.51
2023-02-11T12:37:41.607Z,5.054
2023-02-11T12:39:42.696Z,7.3
2023-02-11T12:43:45.726Z,2.246
2023-02-11T12:45:47.551Z,5.896
2023-02-11T12:47:49.075Z,3.931
2023-02-11T12:49:50.560Z,6.177
2023-02-11T12:51:52.431Z,4.914
2023-02-11T12:52:36.268Z,3.088
2023-02-11T12:54:37.464Z,3.931
2023-02-11T12:58:45.225Z,5.054
2023-02-11T13:00:41.422Z,6.318
2023-02-11T13:02:42.464Z,4.773
2023-02-11T13:04:44.207Z,4.212
2023-02-11T13:08:47.201Z,4.352
2023-02-11T13:10:48.678Z,2.667
2023-02-11T13:12:49.563Z,2.667
2023-02-11T13:14:51.282Z,0.842
2023-02-11T13:16:52.380Z,3.369
2023-02-11T13:18:53.915Z,1.684
2023-02-11T13:20:55.432Z,2.667
2023-02-11T13:22:56.847Z,2.527
2023-02-11T13:24:57.833Z,0.28
2023-02-11T13:26:58.819Z,2.386
2023-02-11T13:29:00.034Z,2.246
2023-02-11T13:31:01.640Z,1.684
2023-02-11T13:33:03.147Z,0.842
2023-02-11T13:35:05.016Z,2.106
2023-02-11T13:37:05.991Z,1.825
2023-02-11T13:39:07.744Z,3.65
2023-02-11T13:41:09.322Z,4.633
2023-02-11T13:43:10.593Z,3.79
2023-02-11T13:45:12.200Z,3.229
2023-02-11T13:47:13.540Z,1.684
2023-02-11T13:49:14.989Z,1.965
2023-02-11T13:51:16.542Z,4.492
2023-02-11T13:53:18.097Z,1.684
2023-02-11T13:55:19.106Z,4.633
2023-02-11T13:57:20.783Z,1.544
2023-02-11T13:59:22.603Z,3.51
2023-02-11T14:01:24.159Z,4.492
2023-02-11T14:03:25.486Z,5.194
2023-02-11T14:05:26.742Z,4.352
2023-02-11T14:07:27.822Z,1.965
2023-02-11T14:09:29.693Z,0.28
2023-02-11T14:11:30.855Z,4.633
2023-02-11T14:13:32.292Z,3.229
2023-02-11T14:15:33.286Z,0.842
2023-02-11T14:17:34.389Z,2.948
2023-02-11T14:19:36.108Z,3.229
2023-02-11T14:21:38.004Z,2.106
2023-02-11T14:23:39.516Z,1.263
2023-02-11T14:25:40.656Z,2.948
2023-02-11T14:27:42.167Z,2.667
2023-02-11T14:29:43.587Z,4.914
2023-02-11T14:31:45.018Z,1.123
2023-02-11T14:33:46.559Z,1.123
2023-02-11T14:35:48.159Z,0.702
2023-02-11T14:39:50.182Z,3.79
2023-02-11T14:41:51.141Z,0.28
2023-02-11T14:43:52.350Z,0.561
2023-02-11T14:45:53.613Z,1.263
2023-02-11T14:49:56.310Z,2.808
2023-02-11T14:51:57.990Z,4.352
2023-02-11T14:53:59.001Z,4.773
2023-02-11T14:56:00.360Z,1.544
2023-02-11T14:58:01.543Z,3.931
2023-02-11T15:00:03.002Z,5.054
2023-02-11T15:02:03.649Z,3.369
2023-02-11T15:04:05.267Z,6.739
2023-02-11T15:06:06.327Z,6.037
2023-02-11T15:08:09.957Z,3.79
2023-02-11T15:10:09.470Z,3.931
2023-02-11T15:12:10.572Z,5.896
2023-02-11T15:14:11.750Z,5.475
2023-02-11T15:16:13.394Z,4.212
2023-02-11T15:18:14.836Z,0.561
2023-02-11T15:20:16.000Z,2.808
2023-02-11T15:22:17.699Z,4.914
2023-02-11T15:24:19.556Z,4.914
2023-02-11T15:26:21.030Z,4.633
2023-02-11T15:28:22.687Z,2.386
2023-02-11T15:30:24.293Z,5.054
2023-02-11T15:32:25.706Z,3.229
2023-02-11T15:34:27.046Z,1.123
2023-02-11T15:36:28.896Z,0.982
2023-02-11T15:38:30.073Z,3.088
2023-02-11T15:40:31.371Z,0.28
2023-02-11T15:42:44.018Z,1.123
2023-02-11T15:44:34.156Z,3.369
2023-02-11T15:46:36.100Z,1.684
2023-02-11T15:48:37.641Z,3.229
2023-02-11T15:50:38.886Z,4.212
2023-02-11T15:52:40.063Z,3.51
2023-02-11T15:54:41.874Z,1.544
2023-02-11T15:56:43.552Z,2.948
2023-02-11T15:58:44.916Z,1.684
2023-02-11T16:00:46.055Z,2.948
2023-02-11T16:02:47.122Z,2.527
2023-02-11T16:04:48.796Z,0.561
2023-02-11T16:06:50.388Z,0.702
2023-02-11T16:08:51.755Z,4.773
2023-02-11T16:10:53.388Z,2.246
2023-02-11T16:12:55.055Z,2.948
2023-02-11T16:14:56.600Z,4.492
2023-02-11T16:16:58.032Z,2.948
2023-02-11T16:19:05.078Z,2.106
2023-02-11T16:21:01.712Z,2.808
2023-02-11T16:23:02.939Z,2.948
2023-02-11T16:25:04.111Z,3.51
2023-02-11T16:27:05.680Z,1.544
2023-02-11T16:29:07.181Z,2.948
2023-02-11T16:31:08.907Z,2.527
2023-02-11T16:33:10.100Z,3.79
2023-02-11T16:35:11.738Z,0.28
2023-02-11T16:37:12.844Z,3.088
2023-02-11T16:39:14.393Z,4.633
2023-02-11T16:41:15.688Z,0.28
2023-02-11T16:43:16.981Z,1.263
2023-02-11T16:45:18.496Z,0
2023-02-11T16:47:19.729Z,1.544
2023-02-11T16:49:21.197Z,1.825
2023-02-11T16:51:22.566Z,0.421
2023-02-11T16:53:24.431Z,0.28
2023-02-11T16:55:25.520Z,0.702
2023-02-11T16:57:28.867Z,0
2023-02-11T16:59:28.232Z,1.123
2023-02-11T17:03:31.351Z,1.544
2023-02-11T17:05:42.840Z,0
2023-02-11T17:07:34.832Z,0
2023-02-11T17:09:36.696Z,0
2023-02-11T17:13:39.742Z,0
2023-02-11T17:15:40.850Z,0
2023-02-11T17:17:42.178Z,0
2023-02-11T17:19:43.984Z,0
2023-02-11T17:21:45.670Z,0
2023-02-11T17:25:48.619Z,0
2023-02-11T17:27:52.523Z,0
2023-02-11T17:29:51.451Z,0
2023-02-11T17:31:53.024Z,0
2023-02-11T17:35:56.579Z,0
2023-02-11T17:37:57.825Z,0
2023-02-11T17:39:58.921Z,0
2023-02-11T17:42:00.689Z,0
2023-02-11T17:46:03.648Z,0
2023-02-11T17:48:04.756Z,0
2023-02-11T17:50:06.408Z,0
2023-02-11T17:52:07.639Z,0
2023-02-11T17:54:09.443Z,0
2023-02-11T17:56:11.282Z,0
2023-02-11T17:58:13.194Z,0
2023-02-11T18:00:14.457Z,0
2023-02-11T18:02:16.106Z,0
2023-02-11T18:04:17.241Z,0
2023-02-11T18:06:18.285Z,0
2023-02-11T18:08:19.943Z,0
2023-02-11T18:10:21.387Z,0
2023-02-11T18:12:22.595Z,0
2023-02-11T18:14:23.627Z,0
2023-02-11T18:18:26.388Z,0
2023-02-11T18:20:27.845Z,0
2023-02-11T18:22:29.597Z,0
2023-02-11T18:24:30.622Z,0
2023-02-11T18:28:33.892Z,0
2023-02-11T18:30:35.852Z,0
2023-02-11T18:32:37.068Z,0
2023-02-11T18:34:38.677Z,0.421
2023-02-11T18:36:39.945Z,0
2023-02-11T18:38:41.768Z,0
2023-02-11T18:40:43.408Z,0
2023-02-11T18:42:45.178Z,0
2023-02-11T18:44:46.179Z,0
2023-02-11T18:46:47.896Z,0.842
2023-02-11T18:48:49.678Z,0.14
2023-02-11T18:50:50.860Z,0
2023-02-11T18:52:52.809Z,0
2023-02-11T18:54:54.584Z,0
2023-02-11T18:56:55.896Z,0.28
2023-02-11T19:00:58.470Z,0
2023-02-11T19:03:00.124Z,0
2023-02-11T19:05:01.243Z,0
2023-02-11T19:07:03.218Z,0
2023-02-11T19:11:05.975Z,0
2023-02-11T19:13:07.340Z,0
2023-02-11T19:15:08.778Z,0
2023-02-11T19:17:09.899Z,0
2023-02-11T19:19:11.443Z,0
2023-02-11T19:21:13.417Z,0
2023-02-11T19:23:15.114Z,0
2023-02-11T19:25:17.059Z,0
2023-02-11T19:27:18.249Z,0
2023-02-11T19:29:19.439Z,0
2023-02-11T19:31:21.456Z,0
2023-02-11T19:33:23.205Z,0
2023-02-11T19:35:24.878Z,0
2023-02-11T19:37:26.617Z,0
2023-02-11T19:38:10.478Z,0
2023-02-11T19:40:11.979Z,0
2023-02-11T19:42:13.494Z,0
2023-02-11T19:44:14.715Z,0
2023-02-11T19:46:15.981Z,0
2023-02-11T19:48:17.203Z,0
2023-02-11T19:50:18.381Z,0
2023-02-11T19:52:19.392Z,0
2023-02-11T19:54:20.841Z,0
2023-02-11T19:56:22.634Z,0
2023-02-11T19:58:24.462Z,0
2023-02-11T20:00:26.192Z,0
2023-02-11T20:02:27.274Z,0
2023-02-11T20:04:28.786Z,0
2023-02-11T20:06:29.923Z,0
2023-02-11T20:08:31.739Z,0
2023-02-11T20:10:32.915Z,0
2023-02-11T20:12:33.977Z,0
2023-02-11T20:14:35.593Z,0
2023-02-11T20:16:47.879Z,0
2023-02-11T20:18:38.716Z,0
2023-02-11T20:20:39.832Z,0
2023-02-11T20:22:41.694Z,0
2023-02-11T20:24:43.021Z,0
2023-02-11T20:26:44.301Z,0
2023-02-11T20:28:45.917Z,0
2023-02-11T20:30:48.008Z,0
2023-02-11T20:32:49.190Z,0
2023-02-11T20:36:52.425Z,0
2023-02-11T20:38:53.947Z,0
2023-02-11T20:40:55.412Z,0
2023-02-11T20:42:57.247Z,0
2023-02-11T20:47:00.706Z,0
2023-02-11T20:49:01.628Z,0
2023-02-11T20:51:03.325Z,0
2023-02-11T20:53:05.141Z,0
2023-02-11T20:55:06.911Z,0
2023-02-11T20:57:08.797Z,0
2023-02-11T20:59:10.215Z,0
2023-02-11T21:01:12.071Z,0
2023-02-11T21:03:13.674Z,0
2023-02-11T21:05:14.825Z,0
2023-02-11T21:07:16.225Z,0
2023-02-11T21:09:17.679Z,0
2023-02-11T21:11:19.270Z,0
2023-02-11T21:13:20.928Z,0
2023-02-11T21:15:22.688Z,0
2023-02-11T21:19:24.740Z,0
2023-02-11T21:21:26.025Z,0
2023-02-11T21:23:27.684Z,0
2023-02-11T21:25:29.252Z,0
2023-02-11T21:29:34.055Z,2.246
2023-02-11T21:31:33.600Z,0.14
2023-02-11T21:33:35.147Z,0
2023-02-11T21:35:36.230Z,0.982
2023-02-11T21:37:38.097Z,0
2023-02-11T21:39:39.755Z,0
2023-02-11T21:41:40.920Z,0
2023-02-11T21:43:42.798Z,0
2023-02-11T21:45:44.012Z,0
2023-02-11T21:47:45.157Z,0
2023-02-11T21:51:47.926Z,0
2023-02-11T21:53:48.928Z,0
2023-02-11T21:57:51.578Z,0
2023-02-11T21:59:53.024Z,0
2023-02-11T22:01:54.373Z,0
2023-02-11T22:03:55.857Z,0
2023-02-11T22:05:57.563Z,0
2023-02-11T22:07:58.565Z,0
2023-02-11T22:10:00.406Z,0
2023-02-11T22:12:02.347Z,0
2023-02-11T22:14:04.204Z,0
2023-02-11T22:16:05.440Z,0
2023-02-11T22:18:06.813Z,0
2023-02-11T22:20:08.375Z,0
2023-02-11T22:22:09.461Z,0
2023-02-11T22:24:11.345Z,0
2023-02-11T22:26:12.742Z,0
2023-02-11T22:28:14.030Z,0
2023-02-11T22:30:15.297Z,0
2023-02-11T22:32:16.727Z,0
2023-02-11T22:34:18.614Z,0
2023-02-11T22:36:20.101Z,0
2023-02-11T22:38:21.665Z,0
2023-02-11T22:40:22.783Z,2.106
2023-02-11T22:42:24.427Z,1.544
2023-02-11T22:44:25.630Z,0
2023-02-11T22:46:27.093Z,0
2023-02-11T22:48:28.643Z,0
2023-02-11T22:50:30.525Z,0
2023-02-11T22:52:32.446Z,0
2023-02-11T22:54:33.507Z,0
2023-02-11T22:56:35.456Z,1.123
2023-02-11T22:58:36.569Z,1.544
2023-02-11T23:00:37.617Z,0.421
2023-02-11T23:02:39.549Z,0
2023-02-11T23:04:41.078Z,0
2023-02-11T23:06:42.963Z,0
2023-02-11T23:08:44.628Z,0
2023-02-11T23:10:46.483Z,0
2023-02-11T23:12:48.418Z,0
2023-02-11T23:14:49.408Z,0
2023-02-11T23:16:50.587Z,0
2023-02-11T23:18:51.728Z,0
2023-02-11T23:20:52.862Z,0
2023-02-11T23:22:54.088Z,0
2023-02-11T23:24:55.160Z,0
2023-02-11T23:26:56.629Z,0
2023-02-11T23:28:58.550Z,0
2023-02-11T23:30:59.718Z,0
2023-02-11T23:33:01.129Z,0
2023-02-11T23:35:02.513Z,0
2023-02-11T23:37:04.280Z,0
2023-02-11T23:39:05.703Z,0
2023-02-11T23:43:08.940Z,0
2023-02-11T23:45:10.715Z,0
2023-02-11T23:47:11.852Z,0
2023-02-11T23:49:13.399Z,0
2023-02-11T23:51:15.086Z,0
2023-02-11T23:53:16.550Z,0.702
2023-02-11T23:55:18.130Z,0
2023-02-11T23:57:19.637Z,0
2023-02-11T23:59:21.260Z,0
